createdAt,value
2023-03-31T00:00:25.488Z,30.58
2023-03-31T00:02:54.792Z,26.08
2023-03-31T00:05:24.784Z,25.55
2023-03-31T00:08:01.104Z,26.20
2023-03-31T00:10:33.714Z,24.42
2023-03-31T00:13:02.199Z,18.33
2023-03-31T00:15:29.398Z,25.35
2023-03-31T00:18:00.577Z,27.48
2023-03-31T00:20:28.379Z,27.35
2023-03-31T00:22:57.842Z,23.50
2023-03-31T00:25:25.512Z,28.30
2023-03-31T00:27:53.052Z,24.85
2023-03-31T00:30:20.535Z,19.02
2023-03-31T00:32:47.856Z,23.45
2023-03-31T00:35:15.175Z,24.23
2023-03-31T00:37:43.402Z,18.65
2023-03-31T00:40:12.574Z,21.75
2023-03-31T00:42:43.850Z,20.90
2023-03-31T00:45:14.047Z,23.52
2023-03-31T00:50:19.207Z,20.98
2023-03-31T00:52:48.970Z,20.88
2023-03-31T00:55:18.431Z,19.42
2023-03-31T00:57:46.846Z,22.27
2023-03-31T01:00:20.820Z,21.17
2023-03-31T01:02:53.237Z,19.00
2023-03-31T01:05:24.020Z,22.52
2023-03-31T01:07:54.014Z,17.00
2023-03-31T01:10:21.945Z,17.40
2023-03-31T01:12:52.817Z,12.05
2023-03-31T01:15:20.406Z,16.65
2023-03-31T01:17:50.478Z,15.27
2023-03-31T01:20:27.240Z,18.48
2023-03-31T01:23:14.770Z,15.75
2023-03-31T01:26:21.941Z,12.68
2023-03-31T01:29:02.092Z,16.67
2023-03-31T01:31:56.260Z,14.18
2023-03-31T01:34:45.793Z,12.98
2023-03-31T01:37:51.869Z,15.75
2023-03-31T01:40:35.680Z,12.05
2023-03-31T01:43:09.585Z,14.20
2023-03-31T01:45:57.775Z,11.70
2023-03-31T01:49:02.639Z,11.80
2023-03-31T01:51:34.248Z,14.40
2023-03-31T01:54:06.198Z,11.68
2023-03-31T01:56:47.686Z,12.18
2023-03-31T01:59:18.678Z,14.15
2023-03-31T02:02:13.862Z,13.60
2023-03-31T02:05:01.686Z,15.63
2023-03-31T02:07:39.549Z,16.33
2023-03-31T02:10:10.285Z,14.23
2023-03-31T02:12:40.175Z,16.13
2023-03-31T02:15:11.099Z,15.73
2023-03-31T02:17:40.289Z,13.93
2023-03-31T02:20:15.378Z,13.82
2023-03-31T02:22:46.014Z,15.88
2023-03-31T02:25:17.610Z,18.67
2023-03-31T02:27:50.180Z,14.63
2023-03-31T02:30:17.419Z,13.38
2023-03-31T02:32:46.764Z,18.20
2023-03-31T02:37:46.926Z,15.45
2023-03-31T02:40:20.775Z,13.38
2023-03-31T02:42:49.616Z,16.38
2023-03-31T02:45:39.960Z,15.15
2023-03-31T02:48:24.349Z,18.73
2023-03-31T02:51:01.862Z,15.52
2023-03-31T02:53:54.216Z,12.77
2023-03-31T02:56:48.342Z,12.55
2023-03-31T02:59:24.579Z,13.27
2023-03-31T03:01:57.886Z,20.00
2023-03-31T03:04:34.175Z,21.83
2023-03-31T03:07:39.683Z,19.92
2023-03-31T03:10:10.427Z,14.70
2023-03-31T03:12:40.635Z,16.92
2023-03-31T03:15:10.407Z,15.93
2023-03-31T03:17:41.490Z,23.63
2023-03-31T03:20:09.959Z,17.45
2023-03-31T03:22:38.844Z,23.08
2023-03-31T03:25:11.662Z,23.42
2023-03-31T03:27:39.629Z,22.50
2023-03-31T03:30:09.423Z,22.02
2023-03-31T03:32:37.992Z,20.30
2023-03-31T03:35:06.687Z,21.60
2023-03-31T03:37:35.272Z,22.02
2023-03-31T03:40:03.899Z,18.48
2023-03-31T03:42:31.191Z,21.92
2023-03-31T03:44:58.518Z,23.75
2023-03-31T03:47:25.962Z,18.17
2023-03-31T03:49:53.250Z,22.02
2023-03-31T03:52:21.413Z,22.83
2023-03-31T03:54:48.662Z,20.50
2023-03-31T03:57:16.721Z,19.98
2023-03-31T03:59:45.565Z,22.95
2023-03-31T04:02:12.939Z,24.25
2023-03-31T04:04:40.325Z,23.25
2023-03-31T04:07:07.642Z,21.73
2023-03-31T04:09:34.962Z,24.88
2023-03-31T04:12:02.330Z,28.55
2023-03-31T04:14:29.668Z,22.08
2023-03-31T04:16:58.602Z,20.65
2023-03-31T04:19:27.551Z,25.83
2023-03-31T04:22:03.144Z,28.27
2023-03-31T04:24:33.030Z,19.55
2023-03-31T04:27:01.197Z,26.48
2023-03-31T04:29:28.544Z,21.92
2023-03-31T04:31:59.282Z,24.63
2023-03-31T04:34:35.044Z,31.45
2023-03-31T04:37:03.558Z,28.77
2023-03-31T04:39:31.090Z,33.70
2023-03-31T04:41:59.771Z,33.53
2023-03-31T04:44:35.289Z,30.77
2023-03-31T04:47:03.390Z,30.70
2023-03-31T04:49:34.326Z,40.17
2023-03-31T04:52:01.740Z,32.25
2023-03-31T04:54:29.009Z,37.83
2023-03-31T04:56:56.318Z,31.10
2023-03-31T04:59:23.614Z,38.53
2023-03-31T05:01:50.902Z,35.60
2023-03-31T05:04:18.240Z,31.73
2023-03-31T05:06:45.585Z,38.03
2023-03-31T05:09:12.869Z,34.13
2023-03-31T05:11:41.051Z,31.48
2023-03-31T05:14:11.391Z,40.72
2023-03-31T05:16:38.769Z,39.13
2023-03-31T05:19:06.235Z,35.13
2023-03-31T05:21:33.532Z,32.33
2023-03-31T05:24:00.794Z,37.85
2023-03-31T05:26:28.049Z,36.65
2023-03-31T05:28:55.386Z,37.85
2023-03-31T05:31:23.244Z,31.33
2023-03-31T05:33:50.716Z,44.72
2023-03-31T05:36:18.455Z,34.85
2023-03-31T05:38:47.722Z,49.53
2023-03-31T05:41:17.070Z,33.03
2023-03-31T05:43:44.527Z,41.00
2023-03-31T05:46:12.072Z,42.25
2023-03-31T05:48:39.501Z,40.90
2023-03-31T05:51:06.794Z,37.30
2023-03-31T05:53:34.171Z,44.83
2023-03-31T05:56:04.361Z,37.35
2023-03-31T05:58:31.777Z,30.92
2023-03-31T06:01:08.349Z,32.60
2023-03-31T06:03:37.725Z,39.58
2023-03-31T06:06:06.313Z,41.25
2023-03-31T06:08:34.437Z,31.42
2023-03-31T06:11:08.281Z,38.13
2023-03-31T06:13:36.940Z,43.05
2023-03-31T06:16:04.311Z,35.47
2023-03-31T06:18:33.614Z,33.00
2023-03-31T06:21:01.267Z,34.67
2023-03-31T06:23:28.777Z,40.22
2023-03-31T06:26:04.630Z,41.42
2023-03-31T06:28:31.959Z,43.42
2023-03-31T06:31:05.546Z,33.33
2023-03-31T06:33:34.024Z,38.92
2023-03-31T06:36:04.303Z,39.13
2023-03-31T06:38:32.604Z,38.90
2023-03-31T06:41:00.587Z,39.65
2023-03-31T06:43:27.895Z,44.75
2023-03-31T06:45:56.235Z,33.88
2023-03-31T06:48:25.322Z,37.17
2023-03-31T06:50:58.924Z,33.05
2023-03-31T06:53:26.472Z,34.20
2023-03-31T06:55:53.850Z,32.67
2023-03-31T06:58:21.466Z,32.35
2023-03-31T07:00:49.680Z,34.58
2023-03-31T07:03:19.055Z,33.92
2023-03-31T07:05:51.028Z,33.97
2023-03-31T07:08:18.975Z,36.22
2023-03-31T07:10:48.765Z,32.25
2023-03-31T07:13:16.941Z,27.60
2023-03-31T07:15:44.924Z,40.30
2023-03-31T07:18:12.755Z,34.50
2023-03-31T07:20:39.935Z,34.05
2023-03-31T07:23:08.620Z,41.75
2023-03-31T07:25:36.465Z,29.33
2023-03-31T07:28:05.166Z,34.45
2023-03-31T07:30:33.165Z,23.40
2023-03-31T07:33:01.811Z,23.40
2023-03-31T07:35:31.391Z,23.75
2023-03-31T07:37:59.087Z,25.30
2023-03-31T07:40:28.519Z,28.27
2023-03-31T07:42:55.820Z,23.38
2023-03-31T07:45:25.317Z,30.17
2023-03-31T07:47:53.010Z,26.98
2023-03-31T07:50:21.351Z,32.28
2023-03-31T07:52:51.955Z,33.65
2023-03-31T07:55:20.160Z,34.95
2023-03-31T07:57:47.722Z,31.10
2023-03-31T08:00:16.260Z,33.45
2023-03-31T08:02:44.042Z,32.92
2023-03-31T08:05:13.167Z,30.17
2023-03-31T08:07:42.237Z,25.65
2023-03-31T08:10:12.730Z,27.15
2023-03-31T08:12:39.976Z,23.92
2023-03-31T08:15:08.117Z,27.08
2023-03-31T08:17:35.757Z,32.15
2023-03-31T08:20:07.954Z,29.60
2023-03-31T08:22:37.012Z,24.88
2023-03-31T08:25:05.894Z,28.67
2023-03-31T08:27:34.678Z,35.55
2023-03-31T08:30:04.546Z,26.15
2023-03-31T08:32:32.994Z,26.67
2023-03-31T08:35:00.729Z,27.55
2023-03-31T08:37:28.413Z,33.38
2023-03-31T08:39:56.092Z,33.13
2023-03-31T08:42:56.302Z,26.25
2023-03-31T08:50:38.253Z,28.65
2023-03-31T08:53:13.964Z,26.67
2023-03-31T08:55:47.650Z,29.40
2023-03-31T08:58:28.128Z,32.13
2023-03-31T09:00:58.125Z,28.17
2023-03-31T09:03:31.831Z,31.13
2023-03-31T09:06:07.283Z,28.05
2023-03-31T09:08:37.339Z,23.30
2023-03-31T09:11:14.917Z,28.83
2023-03-31T09:13:50.872Z,27.42
2023-03-31T09:16:22.755Z,25.20
2023-03-31T09:18:50.916Z,21.67
2023-03-31T09:21:50.076Z,24.13
2023-03-31T09:24:24.222Z,26.10
2023-03-31T09:27:01.453Z,25.92
2023-03-31T09:29:34.708Z,22.48
2023-03-31T09:32:07.456Z,22.83
2023-03-31T09:34:34.928Z,31.17
2023-03-31T09:37:02.143Z,28.52
2023-03-31T09:39:29.372Z,28.08
2023-03-31T09:41:56.681Z,24.98
2023-03-31T09:44:42.373Z,21.77
2023-03-31T09:47:25.756Z,22.90
2023-03-31T09:49:54.045Z,24.27
2023-03-31T09:52:27.996Z,24.73
2023-03-31T09:54:56.937Z,24.92
2023-03-31T09:57:31.995Z,20.98
2023-03-31T10:00:16.605Z,23.27
2023-03-31T10:02:49.374Z,23.35
2023-03-31T10:05:30.556Z,21.85
2023-03-31T10:08:12.924Z,22.95
2023-03-31T10:10:45.491Z,19.75
2023-03-31T10:13:16.985Z,20.05
2023-03-31T10:15:44.808Z,22.63
2023-03-31T10:18:17.176Z,17.13
2023-03-31T10:20:50.620Z,20.20
2023-03-31T10:23:29.575Z,19.52
2023-03-31T10:25:57.101Z,21.17
2023-03-31T10:28:24.525Z,26.50
2023-03-31T10:31:04.191Z,16.58
2023-03-31T10:33:34.730Z,15.43
2023-03-31T10:36:09.278Z,19.73
2023-03-31T10:38:45.195Z,19.60
2023-03-31T10:41:12.807Z,15.32
2023-03-31T10:43:48.689Z,15.52
2023-03-31T10:46:15.979Z,22.45
2023-03-31T10:48:45.067Z,17.85
2023-03-31T10:51:28.698Z,17.38
2023-03-31T10:54:00.992Z,19.80
2023-03-31T10:56:43.811Z,15.38
2023-03-31T10:59:33.017Z,17.02
2023-03-31T11:02:23.384Z,21.80
2023-03-31T11:04:53.670Z,16.40
2023-03-31T11:09:57.776Z,15.15
2023-03-31T11:12:31.229Z,18.83
2023-03-31T11:15:31.443Z,17.55
2023-03-31T11:20:53.766Z,17.15
2023-03-31T11:23:40.009Z,17.77
2023-03-31T11:26:38.348Z,17.20
2023-03-31T11:29:23.138Z,17.83
2023-03-31T11:31:53.267Z,19.83
2023-03-31T11:37:52.966Z,15.15
2023-03-31T11:40:51.353Z,16.88
2023-03-31T11:43:33.540Z,16.35
2023-03-31T11:46:05.130Z,19.23
2023-03-31T11:48:32.478Z,17.98
2023-03-31T11:51:02.008Z,17.38
2023-03-31T11:53:34.319Z,15.85
2023-03-31T11:56:02.641Z,16.50
2023-03-31T11:58:35.926Z,12.52
2023-03-31T12:01:17.042Z,12.93
2023-03-31T12:03:54.629Z,15.88
2023-03-31T12:06:24.478Z,13.02
2023-03-31T12:09:05.713Z,11.23
2023-03-31T12:11:43.404Z,13.02
2023-03-31T12:14:21.388Z,13.35
2023-03-31T12:16:58.444Z,13.20
2023-03-31T12:19:28.832Z,14.40
2023-03-31T12:22:20.585Z,11.70
2023-03-31T12:24:48.478Z,11.30
2023-03-31T12:27:29.549Z,12.65
2023-03-31T12:30:13.220Z,14.80
2023-03-31T12:32:43.742Z,13.65
2023-03-31T12:35:16.469Z,13.27
2023-03-31T12:38:11.682Z,12.50
2023-03-31T12:41:03.771Z,13.38
2023-03-31T12:43:55.125Z,17.25
2023-03-31T12:46:34.928Z,11.43
2023-03-31T12:49:19.220Z,9.18
2023-03-31T12:52:04.387Z,11.20
2023-03-31T12:54:44.525Z,13.93
2023-03-31T12:59:41.489Z,10.52
2023-03-31T13:02:17.434Z,11.98
2023-03-31T13:04:44.922Z,10.98
2023-03-31T13:07:29.128Z,13.07
2023-03-31T13:09:58.578Z,12.85
2023-03-31T13:12:28.252Z,11.70
2023-03-31T13:15:01.521Z,13.07
2023-03-31T13:17:30.059Z,9.27
2023-03-31T13:20:16.050Z,9.30
2023-03-31T13:22:48.493Z,16.38
2023-03-31T13:25:31.358Z,15.35
2023-03-31T13:28:09.255Z,14.93
2023-03-31T13:30:36.844Z,11.55
2023-03-31T13:33:26.965Z,14.80
2023-03-31T13:38:42.159Z,10.10
2023-03-31T13:41:19.123Z,14.05
2023-03-31T13:43:55.062Z,13.63
2023-03-31T13:46:30.622Z,12.80
2023-03-31T13:49:12.051Z,9.85
2023-03-31T13:51:49.073Z,9.38
2023-03-31T13:54:36.353Z,10.80
2023-03-31T13:57:29.500Z,12.35
2023-03-31T14:00:14.343Z,17.20
2023-03-31T14:03:07.755Z,11.85
2023-03-31T14:05:53.880Z,7.63
2023-03-31T14:08:24.135Z,6.30
2023-03-31T14:13:19.767Z,11.80
2023-03-31T14:15:58.612Z,7.30
2023-03-31T14:18:29.702Z,13.50
2023-03-31T14:21:06.451Z,9.80
2023-03-31T14:24:05.546Z,6.90
2023-03-31T14:26:56.502Z,12.02
2023-03-31T14:29:53.138Z,9.48
2023-03-31T14:32:29.702Z,11.40
2023-03-31T14:35:08.435Z,10.02
2023-03-31T14:37:35.848Z,8.07
2023-03-31T14:40:04.812Z,9.57
2023-03-31T14:42:39.556Z,8.90
2023-03-31T14:45:17.047Z,7.38
2023-03-31T14:48:04.674Z,10.55
2023-03-31T14:50:34.910Z,9.18
2023-03-31T14:55:44.187Z,7.18
2023-03-31T14:58:26.140Z,8.38
2023-03-31T15:00:54.159Z,9.75
2023-03-31T15:03:21.601Z,10.20
2023-03-31T15:05:50.278Z,10.43
2023-03-31T15:08:20.766Z,9.70
2023-03-31T15:11:02.434Z,11.88
2023-03-31T15:14:03.373Z,9.80
2023-03-31T15:16:44.465Z,7.35
2023-03-31T15:19:21.400Z,6.33
2023-03-31T15:22:04.670Z,10.30
2023-03-31T15:24:32.046Z,9.40
2023-03-31T15:27:10.026Z,7.95
2023-03-31T15:30:07.061Z,6.68
2023-03-31T15:32:39.346Z,8.82
2023-03-31T15:35:21.140Z,9.73
2023-03-31T15:37:58.299Z,10.32
2023-03-31T15:40:28.409Z,8.85
2023-03-31T15:43:24.572Z,9.43
2023-03-31T15:45:54.398Z,8.00
2023-03-31T15:48:36.469Z,9.98
2023-03-31T15:51:17.907Z,12.10
2023-03-31T15:53:47.228Z,10.73
2023-03-31T15:56:32.332Z,11.53
2023-03-31T15:59:07.007Z,8.13
2023-03-31T16:01:45.835Z,6.82
2023-03-31T16:04:15.203Z,10.50
2023-03-31T16:06:55.517Z,9.40
2023-03-31T16:09:26.367Z,11.68
2023-03-31T16:11:58.527Z,5.15
2023-03-31T16:14:38.678Z,7.38
2023-03-31T16:19:51.189Z,7.63
2023-03-31T16:22:21.629Z,7.90
2023-03-31T16:24:49.237Z,8.68
2023-03-31T16:27:16.490Z,7.47
2023-03-31T16:29:43.753Z,7.68
2023-03-31T16:32:15.452Z,8.07
2023-03-31T16:34:56.800Z,11.85
2023-03-31T16:37:24.598Z,10.82
2023-03-31T16:39:51.896Z,10.25
2023-03-31T16:42:19.806Z,8.05
2023-03-31T16:44:52.894Z,8.85
2023-03-31T16:47:35.205Z,12.90
2023-03-31T16:50:07.332Z,8.68
2023-03-31T16:52:36.042Z,10.02
2023-03-31T16:55:03.374Z,9.30
2023-03-31T16:57:30.754Z,9.98
2023-03-31T16:59:59.037Z,17.67
2023-03-31T17:02:26.754Z,9.35
2023-03-31T17:04:56.566Z,9.50
2023-03-31T17:07:27.039Z,9.57
2023-03-31T17:09:54.261Z,9.98
2023-03-31T17:12:21.574Z,8.85
2023-03-31T17:14:49.057Z,15.27
2023-03-31T17:17:18.013Z,15.65
2023-03-31T17:19:45.488Z,13.35
2023-03-31T17:22:13.134Z,17.83
2023-03-31T17:24:40.803Z,13.50
2023-03-31T17:27:08.116Z,10.27
2023-03-31T17:29:35.477Z,10.43
2023-03-31T17:32:02.956Z,13.07
2023-03-31T17:34:31.775Z,11.45
2023-03-31T17:36:59.801Z,11.77
2023-03-31T17:39:27.701Z,12.07
2023-03-31T17:41:55.051Z,18.08
2023-03-31T17:44:22.626Z,16.58
2023-03-31T17:46:50.004Z,10.93
2023-03-31T17:49:17.643Z,13.60
2023-03-31T17:51:49.761Z,11.10
2023-03-31T17:54:17.053Z,11.25
2023-03-31T17:56:45.449Z,10.73
2023-03-31T17:59:12.765Z,14.35
2023-03-31T18:01:40.167Z,14.38
2023-03-31T18:04:08.246Z,13.27
2023-03-31T18:06:35.511Z,9.15
2023-03-31T18:09:02.913Z,13.60
2023-03-31T18:11:31.085Z,14.82
2023-03-31T18:14:01.978Z,9.88
2023-03-31T18:16:31.054Z,13.52
2023-03-31T18:18:58.306Z,13.77
2023-03-31T18:21:25.813Z,12.52
2023-03-31T18:23:55.088Z,14.55
2023-03-31T18:26:24.100Z,16.27
2023-03-31T18:28:52.610Z,15.15
2023-03-31T18:31:22.378Z,13.32
2023-03-31T18:33:50.002Z,12.13
2023-03-31T18:36:18.978Z,13.90
2023-03-31T18:38:47.956Z,20.60
2023-03-31T18:41:16.110Z,12.82
2023-03-31T18:43:43.512Z,9.43
2023-03-31T18:46:11.463Z,14.95
2023-03-31T18:48:39.230Z,15.82
2023-03-31T18:51:06.890Z,12.70
2023-03-31T18:53:34.192Z,12.07
2023-03-31T18:56:01.660Z,11.68
2023-03-31T18:58:30.167Z,11.85
2023-03-31T19:00:58.216Z,13.40
2023-03-31T19:03:29.191Z,18.75
2023-03-31T19:06:05.237Z,18.17
2023-03-31T19:08:32.773Z,12.00
2023-03-31T19:11:18.196Z,17.80
2023-03-31T19:13:45.694Z,16.42
2023-03-31T19:16:13.478Z,21.60
2023-03-31T19:18:41.121Z,20.98
2023-03-31T19:21:08.423Z,14.38
2023-03-31T19:23:35.731Z,20.42
2023-03-31T19:26:03.244Z,11.77
2023-03-31T19:28:30.654Z,18.65
2023-03-31T19:30:58.594Z,21.08
2023-03-31T19:33:26.728Z,18.13
2023-03-31T19:35:54.227Z,13.52
2023-03-31T19:38:22.003Z,18.35
2023-03-31T19:40:49.608Z,13.38
2023-03-31T19:43:21.129Z,15.35
2023-03-31T19:45:48.924Z,11.40
2023-03-31T19:48:16.690Z,17.08
2023-03-31T19:50:51.230Z,13.50
2023-03-31T19:53:19.536Z,15.07
2023-03-31T19:56:03.642Z,12.57
2023-03-31T19:58:33.154Z,14.57
2023-03-31T20:01:00.396Z,17.93
2023-03-31T20:03:28.209Z,13.18
2023-03-31T20:06:07.258Z,14.10
2023-03-31T20:08:39.444Z,15.05
2023-03-31T20:11:09.783Z,10.77
2023-03-31T20:13:38.297Z,15.18
2023-03-31T20:16:10.765Z,13.15
2023-03-31T20:18:38.680Z,12.75
2023-03-31T20:21:11.536Z,12.18
2023-03-31T20:23:39.977Z,12.30
2023-03-31T20:26:09.031Z,17.10
2023-03-31T20:28:37.862Z,11.60
2023-03-31T20:31:13.294Z,12.02
2023-03-31T20:33:42.048Z,15.07
2023-03-31T20:36:12.085Z,15.07
2023-03-31T20:38:41.309Z,14.98
2023-03-31T20:41:09.582Z,13.13
2023-03-31T20:43:37.275Z,8.88
2023-03-31T20:46:06.533Z,16.40
2023-03-31T20:48:46.574Z,10.80
2023-03-31T20:51:16.425Z,15.95
2023-03-31T20:53:45.659Z,9.90
2023-03-31T20:56:15.201Z,13.37
2023-03-31T20:58:44.092Z,12.43
2023-03-31T21:01:13.081Z,13.40
2023-03-31T21:03:41.270Z,13.75
2023-03-31T21:06:11.963Z,16.45
2023-03-31T21:08:40.769Z,13.63
2023-03-31T21:11:08.596Z,13.77
2023-03-31T21:13:36.082Z,16.58
2023-03-31T21:16:04.592Z,18.77
2023-03-31T21:18:33.419Z,19.85
2023-03-31T21:21:03.275Z,20.83
2023-03-31T21:23:30.920Z,17.95
2023-03-31T21:26:00.604Z,11.13
2023-03-31T21:28:30.281Z,16.45
2023-03-31T21:31:12.545Z,19.98
2023-03-31T21:33:41.646Z,16.40
2023-03-31T21:36:14.756Z,11.50
2023-03-31T21:38:42.556Z,15.98
2023-03-31T21:41:12.561Z,10.45
2023-03-31T21:43:40.285Z,10.88
2023-03-31T21:46:08.002Z,14.73
2023-03-31T21:48:35.584Z,14.73
2023-03-31T21:51:03.596Z,11.55
2023-03-31T21:53:31.502Z,17.45
2023-03-31T21:55:59.276Z,14.80
2023-03-31T21:58:29.128Z,15.65
2023-03-31T22:00:58.011Z,13.00
2023-03-31T22:03:28.663Z,19.48
2023-03-31T22:05:57.453Z,12.90
2023-03-31T22:08:26.946Z,16.02
2023-03-31T22:10:55.567Z,10.23
2023-03-31T22:13:24.156Z,11.32
2023-03-31T22:15:51.517Z,16.33
2023-03-31T22:18:19.468Z,11.77
2023-03-31T22:20:46.890Z,13.95
2023-03-31T22:23:15.027Z,13.20
2023-03-31T22:25:42.584Z,11.93
2023-03-31T22:28:10.374Z,14.77
2023-03-31T22:30:37.813Z,10.23
2023-03-31T22:33:05.588Z,13.05
2023-03-31T22:35:33.188Z,12.13
2023-03-31T22:38:01.540Z,12.18
2023-03-31T22:40:30.134Z,15.13
2023-03-31T22:42:58.424Z,17.58
2023-03-31T22:45:25.778Z,15.45
2023-03-31T22:47:53.009Z,12.80
2023-03-31T22:50:20.420Z,11.48
2023-03-31T22:52:47.593Z,14.45
2023-03-31T22:55:14.916Z,12.43
2023-03-31T22:57:42.617Z,14.52
2023-03-31T23:00:10.669Z,12.52
2023-03-31T23:02:38.011Z,13.18
2023-03-31T23:05:06.265Z,14.95
2023-03-31T23:07:33.451Z,13.80
2023-03-31T23:10:00.701Z,17.48
2023-03-31T23:12:28.520Z,15.70
2023-03-31T23:14:56.111Z,15.35
2023-03-31T23:17:23.556Z,11.15
2023-03-31T23:19:51.344Z,16.20
2023-03-31T23:22:19.052Z,15.65
2023-03-31T23:24:48.759Z,11.80
2023-03-31T23:27:16.113Z,11.57
2023-03-31T23:29:43.985Z,12.75
2023-03-31T23:32:11.623Z,16.35
2023-03-31T23:34:42.248Z,13.15
2023-03-31T23:37:10.722Z,14.07
2023-03-31T23:39:38.879Z,11.73
2023-03-31T23:42:07.351Z,11.93
2023-03-31T23:44:37.196Z,13.00
2023-03-31T23:47:05.567Z,11.85
2023-03-31T23:49:33.408Z,13.45
2023-03-31T23:52:01.308Z,12.73
2023-03-31T23:54:28.956Z,11.65
2023-03-31T23:56:56.354Z,12.02
2023-03-31T23:59:23.755Z,11.95
